createdAt,value
2023-04-27T00:02:11.981Z,10.90
2023-04-27T00:04:40.195Z,10.53
2023-04-27T00:07:08.410Z,12.87
2023-04-27T00:09:36.121Z,13.80
2023-04-27T00:12:04.157Z,12.30
2023-04-27T00:14:31.820Z,10.50
2023-04-27T00:16:59.522Z,11.70
2023-04-27T00:19:28.425Z,10.97
2023-04-27T00:21:58.115Z,12.00
2023-04-27T00:24:25.939Z,10.93
2023-04-27T00:26:53.708Z,11.03
2023-04-27T00:29:21.450Z,12.40
2023-04-27T00:31:49.223Z,9.60
2023-04-27T00:34:17.062Z,12.43
2023-04-27T00:36:48.334Z,11.80
2023-04-27T00:39:16.957Z,11.10
2023-04-27T00:41:44.549Z,9.10
2023-04-27T00:44:12.353Z,11.43
2023-04-27T00:46:40.835Z,16.17
2023-04-27T00:49:08.637Z,15.77
2023-04-27T00:51:36.715Z,13.70
2023-04-27T00:54:06.103Z,15.57
2023-04-27T00:56:33.866Z,17.90
2023-04-27T00:59:01.535Z,13.83
2023-04-27T01:01:31.202Z,13.00
2023-04-27T01:03:59.179Z,19.27
2023-04-27T01:06:28.357Z,17.27
2023-04-27T01:08:56.703Z,11.87
2023-04-27T01:11:24.551Z,18.40
2023-04-27T01:13:54.018Z,15.10
2023-04-27T01:16:21.952Z,14.53
2023-04-27T01:18:49.590Z,14.70
2023-04-27T01:21:17.449Z,18.20
2023-04-27T01:23:46.189Z,13.20
2023-04-27T01:26:16.446Z,12.43
2023-04-27T01:28:44.705Z,15.47
2023-04-27T01:31:13.209Z,17.67
2023-04-27T01:33:42.612Z,15.20
2023-04-27T01:36:11.139Z,20.97
2023-04-27T01:38:38.988Z,13.47
2023-04-27T01:41:09.319Z,16.20
2023-04-27T01:43:37.399Z,16.67
2023-04-27T01:46:23.257Z,14.17
2023-04-27T01:48:51.511Z,14.90
2023-04-27T01:51:20.123Z,11.97
2023-04-27T01:53:47.982Z,11.97
2023-04-27T01:56:17.185Z,15.10
2023-04-27T01:58:44.965Z,14.20
2023-04-27T02:01:12.930Z,13.20
2023-04-27T02:03:40.883Z,14.40
2023-04-27T02:06:08.787Z,15.90
2023-04-27T02:08:37.289Z,13.33
2023-04-27T02:11:05.437Z,18.30
2023-04-27T02:13:33.224Z,14.00
2023-04-27T02:16:03.377Z,15.67
2023-04-27T02:18:36.306Z,12.80
2023-04-27T02:21:11.016Z,24.70
2023-04-27T02:23:38.955Z,18.00
2023-04-27T02:26:06.943Z,15.33
2023-04-27T02:28:38.843Z,14.37
2023-04-27T02:31:06.996Z,11.93
2023-04-27T02:33:34.784Z,13.30
2023-04-27T02:36:02.652Z,10.27
2023-04-27T02:38:31.048Z,11.07
2023-04-27T02:40:58.827Z,11.30
2023-04-27T02:43:27.570Z,10.67
2023-04-27T02:45:55.581Z,12.23
2023-04-27T02:48:23.430Z,11.73
2023-04-27T02:50:51.142Z,18.50
2023-04-27T02:53:19.185Z,14.53
2023-04-27T02:55:48.549Z,11.67
2023-04-27T02:58:17.587Z,17.50
2023-04-27T03:00:45.801Z,14.90
2023-04-27T03:03:13.862Z,12.40
2023-04-27T03:05:41.806Z,11.87
2023-04-27T03:08:09.517Z,22.80
2023-04-27T03:10:37.247Z,13.60
2023-04-27T03:13:05.032Z,10.60
2023-04-27T03:15:32.826Z,13.20
2023-04-27T03:18:00.703Z,10.03
2023-04-27T03:20:28.422Z,11.97
2023-04-27T03:22:56.142Z,13.17
2023-04-27T03:25:24.105Z,12.53
2023-04-27T03:27:51.754Z,11.90
2023-04-27T03:30:19.748Z,10.40
2023-04-27T03:32:47.937Z,9.50
2023-04-27T03:35:16.296Z,10.20
2023-04-27T03:37:46.829Z,10.03
2023-04-27T03:40:15.468Z,15.77
2023-04-27T03:42:43.348Z,11.60
2023-04-27T03:45:12.531Z,7.67
2023-04-27T03:47:41.343Z,17.03
2023-04-27T03:50:10.404Z,9.87
2023-04-27T03:52:38.598Z,11.17
2023-04-27T03:55:08.275Z,10.20
2023-04-27T03:57:36.073Z,12.17
2023-04-27T04:00:07.930Z,13.00
2023-04-27T04:02:40.827Z,19.80
2023-04-27T04:05:10.128Z,13.13
2023-04-27T04:07:38.613Z,13.33
2023-04-27T04:10:08.999Z,9.87
2023-04-27T04:12:38.284Z,14.97
2023-04-27T04:15:08.083Z,9.93
2023-04-27T04:17:36.293Z,12.87
2023-04-27T04:20:10.927Z,11.47
2023-04-27T04:22:40.307Z,11.10
2023-04-27T04:25:08.776Z,11.33
2023-04-27T04:27:37.671Z,9.80
2023-04-27T04:30:07.930Z,12.33
2023-04-27T04:32:38.228Z,11.50
2023-04-27T04:35:07.943Z,10.77
2023-04-27T04:37:36.678Z,15.67
2023-04-27T04:40:10.703Z,13.20
2023-04-27T04:42:39.437Z,9.97
2023-04-27T04:45:10.635Z,10.20
2023-04-27T04:47:39.702Z,13.30
2023-04-27T04:50:10.388Z,8.10
2023-04-27T04:52:38.757Z,10.00
2023-04-27T04:55:07.741Z,10.87
2023-04-27T04:57:36.100Z,11.20
2023-04-27T05:00:14.459Z,11.70
2023-04-27T05:02:42.966Z,13.47
2023-04-27T05:05:10.968Z,13.17
2023-04-27T05:07:38.795Z,12.60
2023-04-27T05:10:07.372Z,16.53
2023-04-27T05:12:35.316Z,12.23
2023-04-27T05:15:03.711Z,12.53
2023-04-27T05:17:31.955Z,10.80
2023-04-27T05:19:59.625Z,21.20
2023-04-27T05:22:27.538Z,15.93
2023-04-27T05:24:56.118Z,15.83
2023-04-27T05:27:24.405Z,13.10
2023-04-27T05:29:52.194Z,12.50
2023-04-27T05:32:19.970Z,15.90
2023-04-27T05:34:49.426Z,13.60
2023-04-27T05:37:17.336Z,20.83
2023-04-27T05:39:45.185Z,12.73
2023-04-27T05:42:13.010Z,9.73
2023-04-27T05:44:40.765Z,12.97
2023-04-27T05:47:08.624Z,9.67
2023-04-27T05:49:37.197Z,15.07
2023-04-27T05:52:05.277Z,15.00
2023-04-27T05:54:33.013Z,12.37
2023-04-27T05:57:01.888Z,9.70
2023-04-27T05:59:29.714Z,11.80
2023-04-27T06:01:57.428Z,13.47
2023-04-27T06:04:25.412Z,8.40
2023-04-27T06:06:53.316Z,13.20
2023-04-27T06:09:21.124Z,7.40
2023-04-27T06:11:48.986Z,13.30
2023-04-27T06:14:17.001Z,8.20
2023-04-27T06:16:44.866Z,7.50
2023-04-27T06:19:13.021Z,10.27
2023-04-27T06:21:41.007Z,12.70
2023-04-27T06:24:09.068Z,10.40
2023-04-27T06:26:36.821Z,7.80
2023-04-27T06:29:04.935Z,10.40
2023-04-27T06:31:33.040Z,13.03
2023-04-27T06:34:01.839Z,9.97
2023-04-27T06:36:29.618Z,6.50
2023-04-27T06:38:58.205Z,8.40
2023-04-27T06:41:27.793Z,8.07
2023-04-27T06:43:57.458Z,8.47
2023-04-27T06:46:26.667Z,6.03
2023-04-27T06:48:54.384Z,7.63
2023-04-27T06:51:22.359Z,7.07
2023-04-27T06:53:50.113Z,7.60
2023-04-27T06:56:17.767Z,10.90
2023-04-27T06:58:45.902Z,7.90
2023-04-27T07:01:13.549Z,6.83
2023-04-27T07:03:41.595Z,9.27
2023-04-27T07:06:09.628Z,7.60
2023-04-27T07:08:37.862Z,7.30
2023-04-27T07:11:05.885Z,10.53
2023-04-27T07:13:33.674Z,5.10
2023-04-27T07:16:01.564Z,6.80
2023-04-27T07:18:29.277Z,7.37
2023-04-27T07:20:58.213Z,6.33
2023-04-27T07:23:25.978Z,8.07
2023-04-27T07:25:54.277Z,3.77
2023-04-27T07:28:22.909Z,5.13
2023-04-27T07:30:51.194Z,4.90
2023-04-27T07:33:19.058Z,7.40
2023-04-27T07:35:46.954Z,6.20
2023-04-27T07:38:14.636Z,7.03
2023-04-27T07:40:43.839Z,6.37
2023-04-27T07:43:13.499Z,8.70
2023-04-27T07:45:42.486Z,7.40
2023-04-27T07:48:10.629Z,7.80
2023-04-27T07:50:38.456Z,4.63
2023-04-27T07:53:06.296Z,5.33
2023-04-27T07:55:34.077Z,4.97
2023-04-27T07:58:02.398Z,5.93
2023-04-27T08:00:30.260Z,8.37
2023-04-27T08:02:58.233Z,4.67
2023-04-27T08:05:26.622Z,5.63
2023-04-27T08:07:54.913Z,5.83
2023-04-27T08:10:24.007Z,8.03
2023-04-27T08:12:51.975Z,6.50
2023-04-27T08:15:20.740Z,4.57
2023-04-27T08:17:48.654Z,4.43
2023-04-27T08:20:16.548Z,5.80
2023-04-27T08:22:45.023Z,3.40
2023-04-27T08:25:12.724Z,4.57
2023-04-27T08:27:42.017Z,4.10
2023-04-27T08:30:11.420Z,4.30
2023-04-27T08:32:40.109Z,5.40
2023-04-27T08:35:08.477Z,4.00
2023-04-27T08:37:36.303Z,3.53
2023-04-27T08:40:10.099Z,6.10
2023-04-27T08:42:42.079Z,5.20
2023-04-27T08:45:10.787Z,5.40
2023-04-27T08:47:43.347Z,6.30
2023-04-27T08:50:13.022Z,10.23
2023-04-27T08:52:44.812Z,5.93
2023-04-27T08:55:15.700Z,4.27
2023-04-27T08:57:57.472Z,5.47
2023-04-27T09:00:42.070Z,4.10
2023-04-27T09:03:28.709Z,4.20
2023-04-27T09:06:05.259Z,6.50
2023-04-27T09:08:51.285Z,6.00
2023-04-27T09:11:45.529Z,4.20
2023-04-27T09:14:23.685Z,4.50
2023-04-27T09:17:00.328Z,5.37
2023-04-27T09:19:30.834Z,5.00
2023-04-27T09:22:11.822Z,5.43
2023-04-27T09:24:51.238Z,3.70
2023-04-27T09:27:23.341Z,4.63
2023-04-27T09:29:51.615Z,9.07
2023-04-27T09:32:21.267Z,3.97
2023-04-27T09:34:49.389Z,6.50
2023-04-27T09:37:18.134Z,4.47
2023-04-27T09:39:47.278Z,3.47
2023-04-27T09:42:16.304Z,5.43
2023-04-27T09:44:44.116Z,4.13
2023-04-27T09:47:14.833Z,3.40
2023-04-27T09:49:43.013Z,3.90
2023-04-27T09:52:11.817Z,4.53
2023-04-27T09:54:42.322Z,3.87
2023-04-27T09:57:41.183Z,9.67
2023-04-27T10:01:31.229Z,5.13
2023-04-27T10:05:10.623Z,4.13
2023-04-27T10:07:41.450Z,4.43
2023-04-27T10:10:18.860Z,5.97
2023-04-27T10:13:02.185Z,5.10
2023-04-27T10:15:30.711Z,4.50
2023-04-27T10:18:06.219Z,6.10
2023-04-27T10:20:38.513Z,6.90
2023-04-27T10:23:06.480Z,4.80
2023-04-27T10:25:42.326Z,4.77
2023-04-27T10:28:20.800Z,5.27
2023-04-27T10:30:50.221Z,5.77
2023-04-27T10:33:23.424Z,4.80
2023-04-27T10:36:00.660Z,5.27
2023-04-27T10:38:32.718Z,8.37
2023-04-27T10:41:05.791Z,7.10
2023-04-27T10:43:36.091Z,7.30
2023-04-27T10:46:15.934Z,7.03
2023-04-27T10:48:45.472Z,6.53
2023-04-27T10:51:18.127Z,5.40
2023-04-27T10:53:46.197Z,4.70
2023-04-27T10:56:14.797Z,4.10
2023-04-27T10:58:48.921Z,4.97
2023-04-27T11:01:29.630Z,6.77
2023-04-27T11:04:01.586Z,4.27
2023-04-27T11:06:34.358Z,5.57
2023-04-27T11:09:02.654Z,4.63
2023-04-27T11:11:30.353Z,6.47
2023-04-27T11:13:58.820Z,4.80
2023-04-27T11:16:27.003Z,5.33
2023-04-27T11:18:56.051Z,4.13
2023-04-27T11:21:25.567Z,9.13
2023-04-27T11:23:54.090Z,7.83
2023-04-27T11:26:26.873Z,6.20
2023-04-27T11:29:14.494Z,4.43
2023-04-27T11:31:51.827Z,6.40
2023-04-27T11:34:26.531Z,6.17
2023-04-27T11:39:41.821Z,5.30
2023-04-27T11:42:28.930Z,6.00
2023-04-27T11:45:08.220Z,6.37
2023-04-27T11:47:36.362Z,6.03
2023-04-27T11:50:09.032Z,5.57
2023-04-27T11:52:40.585Z,5.13
2023-04-27T11:55:16.270Z,4.73
2023-04-27T11:57:44.204Z,5.43
2023-04-27T12:00:14.549Z,6.90
2023-04-27T12:02:45.610Z,6.80
2023-04-27T12:05:14.949Z,5.70
2023-04-27T12:07:43.812Z,5.50
2023-04-27T12:10:12.341Z,6.50
2023-04-27T12:12:40.797Z,7.23
2023-04-27T12:15:10.419Z,8.53
2023-04-27T12:17:40.668Z,6.77
2023-04-27T12:20:10.189Z,4.60
2023-04-27T12:22:38.344Z,4.13
2023-04-27T12:25:07.086Z,6.30
2023-04-27T12:27:34.726Z,6.67
2023-04-27T12:30:02.399Z,8.43
2023-04-27T12:32:30.448Z,5.30
2023-04-27T12:34:58.320Z,6.73
2023-04-27T12:37:27.067Z,4.40
2023-04-27T12:39:55.346Z,7.33
2023-04-27T12:42:24.687Z,6.07
2023-04-27T12:44:53.773Z,6.63
2023-04-27T12:49:54.133Z,5.80
2023-04-27T12:52:21.928Z,8.00
2023-04-27T12:54:51.295Z,8.13
2023-04-27T12:57:19.192Z,5.80
2023-04-27T12:59:46.963Z,5.27
2023-04-27T13:02:14.723Z,5.57
2023-04-27T13:04:42.516Z,6.40
2023-04-27T13:07:10.319Z,6.23
2023-04-27T13:09:38.452Z,8.47
2023-04-27T13:12:06.762Z,9.10
2023-04-27T13:14:34.522Z,7.83
2023-04-27T13:17:02.719Z,5.90
2023-04-27T13:19:31.457Z,7.47
2023-04-27T13:21:59.426Z,6.53
2023-04-27T13:24:29.434Z,9.13
2023-04-27T13:26:57.291Z,6.10
2023-04-27T13:29:25.320Z,5.63
2023-04-27T13:31:53.180Z,8.13
2023-04-27T13:34:22.533Z,6.80
2023-04-27T13:36:50.249Z,6.90
2023-04-27T13:39:18.069Z,7.50
2023-04-27T13:41:46.237Z,6.87
2023-04-27T13:44:14.488Z,6.20
2023-04-27T13:46:43.748Z,5.70
2023-04-27T13:49:11.808Z,7.60
2023-04-27T13:51:40.635Z,6.20
2023-04-27T13:54:08.492Z,6.23
2023-04-27T13:56:38.183Z,9.23
2023-04-27T13:59:06.952Z,7.70
2023-04-27T14:01:35.226Z,5.20
2023-04-27T14:04:03.160Z,7.07
2023-04-27T14:06:32.262Z,8.93
2023-04-27T14:09:00.159Z,6.53
2023-04-27T14:11:28.485Z,6.47
2023-04-27T14:13:56.575Z,6.97
2023-04-27T14:16:24.758Z,6.17
2023-04-27T14:18:52.873Z,8.63
2023-04-27T14:21:20.782Z,7.97
2023-04-27T14:23:48.724Z,11.80
2023-04-27T14:26:16.696Z,7.80
2023-04-27T14:28:44.501Z,6.10
2023-04-27T14:31:12.516Z,7.60
2023-04-27T14:33:40.464Z,6.90
2023-04-27T14:36:08.633Z,8.77
2023-04-27T14:38:36.434Z,10.07
2023-04-27T14:41:04.525Z,8.50
2023-04-27T14:43:32.402Z,7.60
2023-04-27T14:46:12.611Z,7.67
2023-04-27T14:48:49.083Z,6.23
2023-04-27T14:51:17.839Z,8.20
2023-04-27T14:53:46.018Z,8.83
2023-04-27T14:56:13.990Z,8.40
2023-04-27T14:58:42.110Z,7.83
2023-04-27T15:01:10.199Z,9.20
2023-04-27T15:03:38.950Z,7.67
2023-04-27T15:06:07.591Z,6.87
2023-04-27T15:08:35.345Z,8.00
2023-04-27T15:11:04.495Z,9.57
2023-04-27T15:13:32.356Z,7.10
2023-04-27T15:16:05.103Z,7.50
2023-04-27T15:18:33.550Z,11.37
2023-04-27T15:21:01.724Z,10.93
2023-04-27T15:23:29.492Z,7.13
2023-04-27T15:25:59.174Z,6.80
2023-04-27T15:28:26.987Z,8.13
2023-04-27T15:30:54.940Z,7.20
2023-04-27T15:33:22.781Z,9.20
2023-04-27T15:35:51.729Z,11.20
2023-04-27T15:38:21.793Z,7.77
2023-04-27T15:40:49.499Z,10.17
2023-04-27T15:43:17.136Z,8.70
2023-04-27T15:45:45.077Z,8.70
2023-04-27T15:48:13.217Z,7.10
2023-04-27T15:50:41.110Z,8.50
2023-04-27T15:53:08.844Z,10.63
2023-04-27T15:55:36.961Z,7.13
2023-04-27T15:58:04.878Z,6.97
2023-04-27T16:00:33.123Z,8.27
2023-04-27T16:03:00.913Z,9.70
2023-04-27T16:05:29.149Z,9.60
2023-04-27T16:07:56.866Z,8.03
2023-04-27T16:10:24.709Z,9.10
2023-04-27T16:12:52.552Z,9.87
2023-04-27T16:15:20.742Z,8.07
2023-04-27T16:17:48.645Z,9.90
2023-04-27T16:20:16.592Z,9.30
2023-04-27T16:22:44.576Z,8.07
2023-04-27T16:25:12.301Z,9.83
2023-04-27T16:27:40.491Z,7.43
2023-04-27T16:30:09.445Z,6.60
2023-04-27T16:32:38.371Z,10.17
2023-04-27T16:35:08.571Z,7.60
2023-04-27T16:37:36.791Z,8.53
2023-04-27T16:40:07.746Z,10.63
2023-04-27T16:42:35.715Z,9.30
2023-04-27T16:45:03.968Z,8.07
2023-04-27T16:47:32.019Z,11.73
2023-04-27T16:49:59.962Z,10.10
2023-04-27T16:52:27.721Z,6.83
2023-04-27T16:54:55.669Z,8.30
2023-04-27T16:57:23.484Z,11.10
2023-04-27T16:59:51.669Z,14.70
2023-04-27T17:02:25.149Z,11.03
2023-04-27T17:04:55.243Z,10.33
2023-04-27T17:07:22.968Z,8.77
2023-04-27T17:09:50.910Z,11.90
2023-04-27T17:12:18.588Z,8.80
2023-04-27T17:14:46.624Z,14.47
2023-04-27T17:17:14.318Z,9.47
2023-04-27T17:19:42.484Z,9.10
2023-04-27T17:22:13.317Z,11.40
2023-04-27T17:24:41.374Z,10.20
2023-04-27T17:27:09.515Z,8.50
2023-04-27T17:29:37.499Z,8.47
2023-04-27T17:32:05.769Z,12.20
2023-04-27T17:34:33.622Z,10.17
2023-04-27T17:37:02.160Z,12.10
2023-04-27T17:39:30.031Z,15.33
2023-04-27T17:41:57.876Z,11.93
2023-04-27T17:44:25.649Z,7.93
2023-04-27T17:46:53.673Z,11.27
2023-04-27T17:49:21.475Z,10.00
2023-04-27T17:51:50.015Z,10.50
2023-04-27T17:54:17.819Z,8.50
2023-04-27T17:56:45.578Z,8.57
2023-04-27T17:59:13.538Z,11.50
2023-04-27T18:01:41.482Z,9.60
2023-04-27T18:04:10.167Z,13.47
2023-04-27T18:06:38.555Z,15.53
2023-04-27T18:09:06.821Z,9.53
2023-04-27T18:11:35.439Z,10.10
2023-04-27T18:14:04.097Z,10.40
2023-04-27T18:16:31.828Z,9.37
2023-04-27T18:18:59.544Z,9.97
2023-04-27T18:21:28.680Z,8.37
2023-04-27T18:23:57.845Z,8.37
2023-04-27T18:26:25.933Z,10.97
2023-04-27T18:28:54.412Z,9.73
2023-04-27T18:31:24.267Z,12.30
2023-04-27T18:33:52.387Z,9.53
2023-04-27T18:36:21.041Z,9.70
2023-04-27T18:38:48.969Z,9.80
2023-04-27T18:41:18.128Z,10.63
2023-04-27T18:43:46.081Z,7.03
2023-04-27T18:46:14.386Z,15.00
2023-04-27T18:48:42.401Z,13.00
2023-04-27T18:51:10.577Z,10.60
2023-04-27T18:53:38.470Z,9.33
2023-04-27T18:56:08.053Z,11.50
2023-04-27T18:58:36.712Z,13.13
2023-04-27T19:01:04.826Z,8.37
2023-04-27T19:03:32.981Z,9.43
2023-04-27T19:06:00.918Z,11.20
2023-04-27T19:08:28.713Z,11.83
2023-04-27T19:10:57.917Z,11.77
2023-04-27T19:13:26.289Z,11.33
2023-04-27T19:15:53.993Z,11.40
2023-04-27T19:18:22.098Z,15.60
2023-04-27T19:20:50.143Z,9.60
2023-04-27T19:23:19.369Z,10.53
2023-04-27T19:25:48.413Z,9.77
2023-04-27T19:28:20.939Z,12.30
2023-04-27T19:30:50.243Z,14.83
2023-04-27T19:33:20.391Z,13.77
2023-04-27T19:35:48.342Z,12.60
2023-04-27T19:38:16.354Z,9.93
2023-04-27T19:40:44.180Z,16.10
2023-04-27T19:43:12.136Z,11.80
2023-04-27T19:45:41.977Z,10.63
2023-04-27T19:48:09.822Z,20.33
2023-04-27T19:50:42.646Z,11.73
2023-04-27T19:53:11.299Z,10.67
2023-04-27T19:55:40.307Z,14.03
2023-04-27T19:58:08.140Z,13.10
2023-04-27T20:00:36.198Z,8.63
2023-04-27T20:03:06.436Z,14.13
2023-04-27T20:05:37.804Z,9.43
2023-04-27T20:08:06.234Z,13.73
2023-04-27T20:10:34.333Z,14.87
2023-04-27T20:13:02.253Z,9.53
2023-04-27T20:15:30.127Z,11.07
2023-04-27T20:17:58.152Z,9.97
2023-04-27T20:20:26.176Z,9.73
2023-04-27T20:22:54.214Z,11.63
2023-04-27T20:25:22.421Z,12.17
2023-04-27T20:27:50.339Z,12.37
2023-04-27T20:30:18.416Z,12.57
2023-04-27T20:32:46.636Z,9.40
2023-04-27T20:35:14.472Z,10.90
2023-04-27T20:37:43.903Z,11.73
2023-04-27T20:40:17.974Z,11.80
2023-04-27T20:42:46.414Z,12.83
2023-04-27T20:45:14.289Z,11.03
2023-04-27T20:47:42.520Z,11.83
2023-04-27T20:50:11.117Z,9.20
2023-04-27T20:52:38.807Z,9.00
2023-04-27T20:55:07.540Z,12.67
2023-04-27T20:57:35.752Z,8.43
2023-04-27T21:00:04.368Z,11.60
2023-04-27T21:02:32.189Z,11.13
2023-04-27T21:05:00.212Z,9.10
2023-04-27T21:07:28.392Z,14.13
2023-04-27T21:09:56.254Z,10.47
2023-04-27T21:12:24.016Z,12.43
2023-04-27T21:14:51.854Z,12.50
2023-04-27T21:17:19.713Z,10.90
2023-04-27T21:19:47.429Z,9.03
2023-04-27T21:22:15.198Z,10.53
2023-04-27T21:24:42.890Z,11.10
2023-04-27T21:27:11.655Z,14.67
2023-04-27T21:29:39.519Z,9.30
2023-04-27T21:32:07.539Z,10.13
2023-04-27T21:34:35.217Z,15.43
2023-04-27T21:37:02.942Z,12.93
2023-04-27T21:39:31.869Z,11.30
2023-04-27T21:41:59.602Z,10.37
2023-04-27T21:44:27.192Z,9.77
2023-04-27T21:46:54.856Z,10.23
2023-04-27T21:49:22.763Z,11.73
2023-04-27T21:51:50.497Z,11.93
2023-04-27T21:54:18.641Z,11.10
2023-04-27T21:56:46.349Z,9.80
2023-04-27T21:59:14.091Z,10.37
2023-04-27T22:01:41.849Z,10.20
2023-04-27T22:04:10.061Z,8.30
2023-04-27T22:06:38.232Z,10.47
2023-04-27T22:09:08.129Z,11.17
2023-04-27T22:11:36.055Z,11.80
2023-04-27T22:14:03.976Z,9.03
2023-04-27T22:16:31.863Z,12.20
2023-04-27T22:18:59.855Z,7.40
2023-04-27T22:21:29.012Z,10.20
2023-04-27T22:23:56.828Z,11.00
2023-04-27T22:26:24.733Z,13.23
2023-04-27T22:28:52.450Z,14.73
2023-04-27T22:31:20.196Z,17.90
2023-04-27T22:33:47.981Z,11.07
2023-04-27T22:36:15.681Z,17.37
2023-04-27T22:38:43.498Z,10.37
2023-04-27T22:41:11.177Z,10.77
2023-04-27T22:43:39.068Z,13.20
2023-04-27T22:46:06.822Z,8.73
2023-04-27T22:48:34.659Z,9.23
2023-04-27T22:51:02.353Z,14.20
2023-04-27T22:53:29.995Z,11.57
2023-04-27T22:55:57.663Z,11.30
2023-04-27T22:58:25.480Z,12.27
2023-04-27T23:00:53.328Z,11.43
2023-04-27T23:03:21.356Z,11.20
2023-04-27T23:05:50.039Z,13.40
2023-04-27T23:08:18.767Z,13.17
2023-04-27T23:10:46.815Z,11.13
2023-04-27T23:13:14.797Z,14.50
2023-04-27T23:15:42.391Z,7.93
2023-04-27T23:18:10.089Z,12.90
2023-04-27T23:20:37.821Z,12.63
2023-04-27T23:23:05.782Z,12.73
2023-04-27T23:25:34.246Z,11.17
2023-04-27T23:28:01.954Z,11.23
2023-04-27T23:30:30.709Z,13.47
2023-04-27T23:32:58.612Z,11.50
2023-04-27T23:35:29.794Z,11.03
2023-04-27T23:37:58.641Z,11.83
2023-04-27T23:40:26.476Z,12.67
2023-04-27T23:42:54.158Z,22.87
2023-04-27T23:45:21.913Z,11.70
2023-04-27T23:47:49.647Z,11.77
2023-04-27T23:50:17.585Z,9.47
2023-04-27T23:52:45.453Z,9.70
2023-04-27T23:55:13.431Z,11.50
2023-04-27T23:57:41.713Z,12.40
